• Join FlightAware (Why Join?)
  • Login
  • US Flag 
12:41AM EDT


 

Airport Tracker/Info


-or-


 

Live Flight TrackerFlight Track Log ✈ ASQ5861 ✈ 19-Apr-2013 ✈ CYWG - KORD

Flight Track Log - Related Links

Times and Time Zones

All times are in EDT time to prevent confusion due to time zone crossing. See the ASQ5861 flight status page for this flight to view local times or setup timezone preferences in your user account.

Time Position Orientation Groundspeed Altitude Reporting Facility
EDT Latitude Longitude Course Direction KTS MPH feet Rate Location/Type
07:05PM 49.9333 -97.2333 147° Southeast 160 184 3,200  Level Winnipeg Center
07:06PM 50.0000 -97.2000 18° North 220 253 5,700 2,640 Climbing Winnipeg Center
07:07PM 50.0333 -97.1167 58° Northeast 270 311 8,500 2,580 Climbing Winnipeg Center
07:08PM 49.9667 -97.0667 154° Southeast 300 345 10,900 1,740 Climbing Winnipeg Center
07:09PM 49.8667 -97.0500 174° South 370 426 12,000 1,440 Climbing Winnipeg Center
07:10PM 49.4627 -96.7946 150° Southeast  Level FlightAware Approximate
07:10PM 49.7667 -97.0000 162° South 380 437 13,800  Level Winnipeg Center
07:11PM 49.3720 -96.7053 147° Southeast  Level FlightAware Approximate
07:11PM 49.6667 -96.9333 157° South 390 449 15,600  Level Winnipeg Center
07:12PM 49.5667 -96.8833 162° South 390 449 17,300 1,500 Climbing Winnipeg Center
07:13PM 49.4667 -96.8167 157° South 400 460 18,700 1,440 Climbing Winnipeg Center
07:14PM 49.3667 -96.7167 147° Southeast 400 460 20,200 1,500 Climbing Winnipeg Center
07:15PM 49.2833 -96.6000 138° Southeast 410 472 21,700 1,500 Climbing Winnipeg Center
07:16PM 49.1833 -96.5000 147° Southeast 410 472 23,200 1,440 Climbing Winnipeg Center
07:17PM 49.0833 -96.4333 156° South 420 483 24,600 1,440 Climbing Winnipeg Center
07:18PM 48.9667 -96.3333 151° Southeast 420 483 26,100 1,440 Climbing Winnipeg Center
07:19PM 48.8667 -96.2333 147° Southeast 420 483 27,500 1,380 Climbing Winnipeg Center
07:20PM 48.7667 -96.1500 151° Southeast 420 483 28,900 1,440 Climbing Winnipeg Center
07:21PM 48.6667 -96.0500 147° Southeast 420 483 30,400 1,260 Climbing Winnipeg Center
07:22PM 48.6769 -96.0586 331° Northwest 422 486 30,500 1,020 Climbing Minneapolis Center
07:23PM 48.5769 -95.9672 149° Southeast 420 483 31,800 1,320 Climbing Minneapolis Center
07:24PM 48.4556 -95.8564 149° Southeast 424 488 33,300 1,260 Climbing Minneapolis Center
07:25PM 48.3528 -95.7642 149° Southeast 428 493 34,500 780 Climbing Minneapolis Center
07:26PM 48.2511 -95.6708 149° Southeast 427 491 35,000 240 Climbing Minneapolis Center
07:27PM 48.1453 -95.5756 149° Southeast 437 503 35,000  Level Minneapolis Center
07:28PM 48.0222 -95.4672 149° Southeast 466 536 35,000  Level Minneapolis Center
07:29PM 47.9039 -95.3622 149° Southeast 486 559 35,000  Level Minneapolis Center
07:30PM 47.7867 -95.2586 149° Southeast 492 566 35,000  Level Minneapolis Center
07:31PM 47.6700 -95.1553 149° Southeast 491 565 35,000  Level Minneapolis Center
07:32PM 47.5533 -95.0522 149° Southeast 490 564 35,000  Level Minneapolis Center
07:33PM 47.4158 -94.9294 149° Southeast 487 560 35,000  Level Minneapolis Center
07:34PM 47.2986 -94.8281 150° Southeast 490 564 35,000  Level Minneapolis Center
07:35PM 47.1797 -94.7261 150° Southeast 496 571 35,000  Level Minneapolis Center
07:36PM 47.0617 -94.6264 150° Southeast 494 568 35,000  Level Minneapolis Center
07:37PM 46.9442 -94.5261 150° Southeast 492 566 35,000  Level Minneapolis Center
07:38PM 46.8036 -94.4058 150° Southeast 492 566 35,000  Level Minneapolis Center
07:39PM 46.6850 -94.3075 150° Southeast 493 567 35,000  Level Minneapolis Center
07:40PM 46.5667 -94.2072 150° Southeast 493 567 35,000  Level Minneapolis Center
07:41PM 46.4492 -94.1117 151° Southeast 489 563 35,000  Level Minneapolis Center
07:42PM 46.3283 -94.0150 151° Southeast 495 570 35,000  Level Minneapolis Center
07:43PM 46.2033 -93.9475 160° South 492 566 35,000  Level Minneapolis Center
07:44PM 46.0528 -93.8606 158° South 487 560 35,000  Level Minneapolis Center
07:45PM 45.9264 -93.7903 159° South 488 562 35,000  Level Minneapolis Center
07:46PM 45.7992 -93.7228 160° South 489 563 35,000  Level Minneapolis Center
07:47PM 45.6703 -93.6550 160° South 490 564 35,000  Level Minneapolis Center
07:48PM 45.5439 -93.5872 159° South 490 564 35,000  Level Minneapolis Center
07:49PM 45.4164 -93.5183 159° South 491 565 35,000  Level Minneapolis Center
07:50PM 45.2647 -93.4369 159° South 489 563 35,000  Level Minneapolis Center
07:52PM 45.1542 -93.3247 144° Southeast 502 578 35,000  Level Minneapolis Center
07:53PM 45.0775 -93.1625 124° Southeast 494 568 35,000  Level Minneapolis Center
07:54PM 44.9989 -92.9994 124° Southeast 496 571 35,000  Level Minneapolis Center
07:55PM 44.9214 -92.8361 124° Southeast 496 571 35,000  Level Minneapolis Center
07:56PM 44.8444 -92.6742 124° Southeast 496 571 35,000  Level Minneapolis Center
07:57PM 44.7675 -92.5147 124° Southeast 492 566 35,000  Level Minneapolis Center
07:58PM 44.6889 -92.3550 125° Southeast 495 570 35,000  Level Minneapolis Center
07:59PM 44.5958 -92.1664 125° Southeast 493 567 35,000  Level Minneapolis Center
08:00PM 44.5203 -92.0094 124° Southeast 487 560 35,000  Level Minneapolis Center
08:01PM 44.4428 -91.8542 125° Southeast 489 563 35,000  Level Minneapolis Center
08:02PM 44.3658 -91.6981 125° Southeast 488 562 35,000  Level Minneapolis Center
08:03PM 44.2883 -91.5458 125° Southeast 485 558 35,000  Level Minneapolis Center
08:04PM 44.2119 -91.3919 125° Southeast 484 557 35,000  Level Minneapolis Center
08:05PM 44.1239 -91.2175 125° Southeast 486 559 35,000 -180 Level Minneapolis Center
08:06PM 44.0469 -91.0650 125° Southeast 485 558 34,700 -840 Descending Minneapolis Center
08:07PM 43.9694 -90.9122 125° Southeast 486 559 33,400 -1,680 Descending Minneapolis Center
08:08PM 43.8933 -90.7644 126° Southeast 476 548 31,300 -1,200 Descending Minneapolis Center
08:09PM 43.8183 -90.6178 125° Southeast 470 541 31,000 -180 Descending Minneapolis Center
08:10PM 43.7447 -90.4739 125° Southeast 461 531 31,000  Level Minneapolis Center
08:11PM 43.6550 -90.3031 126° Southeast 460 529 31,000  Level Minneapolis Center
08:12PM 43.5883 -90.1753 126° Southeast 456 525 31,000 -180 Level Minneapolis Center
08:13PM 43.5025 -90.0122 126° Southeast 451 519 30,700 -1,320 Descending Minneapolis Center
08:14PM 43.4267 -89.8681 126° Southeast 464 534 28,300 -2,280 Descending Minneapolis Center
08:15PM 43.3628 -89.7494 127° Southeast 464 534 26,400 -2,220 Descending Chicago Center
08:16PM 43.2886 -89.6103 126° Southeast 456 525 24,100 -2,460 Descending Chicago Center
08:17PM 43.2033 -89.4486 126° Southeast 451 519 21,400 -2,520 Descending Chicago Center
08:18PM 43.1136 -89.3325 137° Southeast 453 521 18,900 -2,340 Descending Chicago Center
08:19PM 43.0044 -89.2744 159° South 431 496 16,700 -1,680 Descending Chicago Center
08:20PM 42.9178 -89.1728 139° Southeast 413 475 15,500 -1,200 Descending Chicago Center
08:21PM 42.8358 -89.0700 137° Southeast 403 464 14,300 -1,080 Descending Chicago Center
08:22PM 42.7539 -88.9669 137° Southeast 401 461 13,300 -600 Descending Chicago Center
08:23PM 42.6553 -88.8464 138° Southeast 407 468 13,100 -120 Descending Chicago Center
08:24PM 42.5739 -88.7436 137° Southeast 403 464 13,100 -600 Level Chicago Center
08:25PM 42.4914 -88.6450 139° Southeast 399 459 11,900 -1,320 Descending Chicago Center
08:26PM 42.4147 -88.5494 137° Southeast 383 441 10,400 -960 Descending Chicago Center
08:27PM 42.3572 -88.4375 125° Southeast 374 430 10,000 -240 Descending Chicago Center
08:28PM 42.2925 -88.3097 124° Southeast 366 421 10,000  Level Chicago Center
08:29PM 42.2281 -88.2019 129° Southeast 370 426 10,000 -60 Level Chicago Center
08:31PM 42.1586 -88.1056 134° Southeast 360 414 9,900 -480 Descending Chicago Center
08:32PM 42.1006 -88.0286 135° Southeast 297 342 9,100 -1,080 Descending Chicago Center
08:32PM 42.1000 -87.9833 91° East 291 335 8,500 -1,020 Descending Chicago TRACON
08:34PM 42.0914 -87.7881 93° East 294 338 7,000 -660 Descending Chicago Center
08:35PM 42.0908 -87.6872 90° East 275 316 6,700 -540 Descending Chicago Center
08:36PM 42.0908 -87.5911 90° East 261 300 6,000 -780 Descending Chicago Center
08:37PM 42.0908 -87.4992 90° East 249 287 5,100 -780 Descending Chicago Center
08:38PM 42.0900 -87.4031 91° East 255 293 4,400 -600 Descending Chicago Center
08:39PM 42.0450 -87.3575 143° Southeast 239 275 3,900 -300 Descending Chicago Center
08:40PM 42.0053 -87.4144 227° Southwest 202 232 3,900  Level Chicago Center
08:41PM 42.0019 -87.4814 266° West 192 221 3,900  Level Chicago Center
08:42PM 42.0028 -87.5494 271° West 186 214 3,900 -60 Level Chicago Center
08:43PM 42.0017 -87.6156 269° West 183 211 3,800  Descending Chicago Center
08:44PM 42.0000 -87.6833 268° West 149 171 4,000 -360 Climbing Chicago TRACON
08:45PM 42.0000 -87.7333 270° West 159 183 3,200 -780 Descending Chicago TRACON
08:47PM 42.0031 -87.8444 272° West 143 165 1,600 -720 Descending Chicago Center
08:48PM 42.0000 -87.8833 264° West 129 148 1,100 -660 Descending Chicago TRACON